DAL1980 SBPA-SBCT
Flight info
| Callsign | DAL1980 |
|---|---|
| Flight time | 0h 48m |
| Altitude | 31000 |
| Route | PENSO UZ132 VUGUP |
| Aircraft | B772/H-B772/2000 |
Departure
| Time | 2026-05-08 19:15 |
|---|---|
| Airport | Porto Alegre-Salgado Filho International Airport (SBPA) |
Arrival
| Time | 2026-05-08 20:04 |
|---|---|
| Airport | Curitiba-Afonso Pena International Airport (SBCT) |
| Time | Latitude | Longitude | Altitude | Speed | Heading |
|---|---|---|---|---|---|
| 2026-05-08 19:14 | -29.99369 | -51.18247 | 24 ft | 12 kts | 200° |
| 2026-05-08 19:14 | -29.99448 | -51.18209 | 24 ft | 30 kts | 83° |
| 2026-05-08 19:15 | -29.99442 | -51.17659 | 24 ft | 110 kts | 91° |
| 2026-05-08 19:15 | -29.99470 | -51.16474 | 25 ft | 184 kts | 91° |
| 2026-05-08 19:15 | -29.99504 | -51.14780 | 334 ft | 225 kts | 89° |
| 2026-05-08 19:15 | -29.99543 | -51.12842 | 965 ft | 263 kts | 89° |
| 2026-05-08 19:16 | -29.99567 | -51.10546 | 1450 ft | 311 kts | 89° |
| 2026-05-08 19:16 | -29.99569 | -51.07844 | 2021 ft | 357 kts | 88° |
| 2026-05-08 19:16 | -29.99435 | -51.04963 | 3683 ft | 363 kts | 83° |
| 2026-05-08 19:16 | -29.99088 | -51.01985 | 4740 ft | 383 kts | 69° |
| 2026-05-08 19:17 | -29.97788 | -50.99287 | 5761 ft | 392 kts | 45° |
| 2026-05-08 19:17 | -29.95925 | -50.97095 | 7719 ft | 366 kts | 39° |
| 2026-05-08 19:17 | -29.94164 | -50.95079 | 9974 ft | 355 kts | 37° |
| 2026-05-08 19:17 | -29.92328 | -50.93137 | 10770 ft | 373 kts | 30° |
| 2026-05-08 19:18 | -29.90072 | -50.91496 | 11022 ft | 394 kts | 18° |
| 2026-05-08 19:18 | -29.87523 | -50.90081 | 11648 ft | 413 kts | 21° |
| 2026-05-08 19:18 | -29.85084 | -50.88504 | 13595 ft | 390 kts | 19° |
| 2026-05-08 19:18 | -29.82660 | -50.87202 | 15107 ft | 379 kts | 11° |
| 2026-05-08 19:19 | -29.80142 | -50.86380 | 16121 ft | 374 kts | 1° |
| 2026-05-08 19:19 | -29.77588 | -50.86045 | 16949 ft | 367 kts | 354° |
| 2026-05-08 19:19 | -29.75033 | -50.85920 | 17516 ft | 368 kts | 353° |
| 2026-05-08 19:19 | -29.72475 | -50.85825 | 18095 ft | 369 kts | 352° |
| 2026-05-08 19:20 | -29.69898 | -50.85759 | 18650 ft | 370 kts | 352° |
| 2026-05-08 19:20 | -29.69060 | -50.85741 | 18835 ft | 370 kts | 352° |
| 2026-05-08 19:20 | -29.64739 | -50.85652 | 19630 ft | 376 kts | 352° |
| 2026-05-08 19:20 | -29.62111 | -50.85597 | 20109 ft | 379 kts | 352° |
| 2026-05-08 19:21 | -29.59459 | -50.85540 | 20582 ft | 382 kts | 352° |
| 2026-05-08 19:21 | -29.56780 | -50.85483 | 21040 ft | 385 kts | 352° |
| 2026-05-08 19:21 | -29.54089 | -50.85425 | 21480 ft | 388 kts | 352° |
| 2026-05-08 19:21 | -29.51372 | -50.85366 | 21911 ft | 391 kts | 352° |
| 2026-05-08 19:22 | -29.48634 | -50.85306 | 22331 ft | 394 kts | 352° |
| 2026-05-08 19:22 | -29.45877 | -50.85246 | 22743 ft | 397 kts | 352° |
| 2026-05-08 19:22 | -29.43100 | -50.85185 | 23149 ft | 400 kts | 352° |
| 2026-05-08 19:22 | -29.40345 | -50.85125 | 23548 ft | 403 kts | 352° |
| 2026-05-08 19:23 | -29.37526 | -50.85064 | 23953 ft | 406 kts | 352° |
| 2026-05-08 19:23 | -29.34690 | -50.85002 | 24352 ft | 409 kts | 352° |
| 2026-05-08 19:23 | -29.31845 | -50.84940 | 24780 ft | 410 kts | 352° |
| 2026-05-08 19:23 | -29.28974 | -50.84877 | 25189 ft | 413 kts | 352° |
| 2026-05-08 19:24 | -29.26094 | -50.84814 | 25598 ft | 415 kts | 352° |
| 2026-05-08 19:24 | -29.23198 | -50.84751 | 25999 ft | 417 kts | 352° |
| 2026-05-08 19:24 | -29.20286 | -50.84688 | 26390 ft | 419 kts | 352° |
| 2026-05-08 19:24 | -29.17360 | -50.84624 | 26777 ft | 421 kts | 352° |
| 2026-05-08 19:25 | -29.14429 | -50.84561 | 27154 ft | 423 kts | 352° |
| 2026-05-08 19:25 | -29.11475 | -50.84497 | 27528 ft | 425 kts | 352° |
| 2026-05-08 19:25 | -29.08540 | -50.84433 | 27881 ft | 427 kts | 352° |
| 2026-05-08 19:25 | -29.05560 | -50.84368 | 28242 ft | 429 kts | 352° |
| 2026-05-08 19:26 | -29.02570 | -50.84303 | 28592 ft | 431 kts | 352° |
| 2026-05-08 19:26 | -28.99562 | -50.84238 | 28929 ft | 433 kts | 352° |
| 2026-05-08 19:26 | -28.96546 | -50.84173 | 29274 ft | 434 kts | 352° |
| 2026-05-08 19:26 | -28.93536 | -50.84108 | 29777 ft | 431 kts | 352° |
| 2026-05-08 19:27 | -28.90544 | -50.84043 | 30318 ft | 428 kts | 352° |
| 2026-05-08 19:27 | -28.87572 | -50.83979 | 30801 ft | 426 kts | 352° |
| 2026-05-08 19:27 | -28.84635 | -50.83916 | 31008 ft | 428 kts | 352° |
| 2026-05-08 19:28 | -28.78700 | -50.83787 | 31000 ft | 426 kts | 352° |
| 2026-05-08 19:28 | -28.72770 | -50.83660 | 31000 ft | 426 kts | 352° |
| 2026-05-08 19:29 | -28.66865 | -50.83533 | 31000 ft | 426 kts | 352° |
| 2026-05-08 19:29 | -28.60931 | -50.83405 | 31000 ft | 426 kts | 352° |
| 2026-05-08 19:30 | -28.54996 | -50.83277 | 31000 ft | 426 kts | 352° |
| 2026-05-08 19:30 | -28.49066 | -50.83150 | 31000 ft | 426 kts | 352° |
| 2026-05-08 19:31 | -28.43169 | -50.83024 | 31000 ft | 426 kts | 352° |
| 2026-05-08 19:31 | -28.37243 | -50.82897 | 31000 ft | 426 kts | 352° |
| 2026-05-08 19:32 | -28.31312 | -50.82769 | 31000 ft | 425 kts | 352° |
| 2026-05-08 19:32 | -28.25467 | -50.82644 | 31000 ft | 415 kts | 352° |
| 2026-05-08 19:33 | -28.19723 | -50.82522 | 31000 ft | 415 kts | 352° |
| 2026-05-08 19:33 | -28.13927 | -50.82398 | 31000 ft | 415 kts | 352° |
| 2026-05-08 19:34 | -28.08137 | -50.82229 | 30997 ft | 421 kts | 355° |
| 2026-05-08 19:34 | -28.05202 | -50.81681 | 31002 ft | 434 kts | 4° |
| 2026-05-08 19:34 | -28.02297 | -50.80587 | 31000 ft | 445 kts | 11° |
| 2026-05-08 19:35 | -27.96652 | -50.77578 | 31000 ft | 455 kts | 16° |
| 2026-05-08 19:35 | -27.91073 | -50.74161 | 31000 ft | 454 kts | 17° |
| 2026-05-08 19:36 | -27.85507 | -50.70771 | 31000 ft | 454 kts | 17° |
| 2026-05-08 19:36 | -27.79947 | -50.67427 | 31000 ft | 454 kts | 16° |
| 2026-05-08 19:37 | -27.74368 | -50.64089 | 31000 ft | 453 kts | 16° |
| 2026-05-08 19:37 | -27.68792 | -50.60736 | 31000 ft | 454 kts | 16° |
| 2026-05-08 19:38 | -27.63246 | -50.57415 | 31000 ft | 453 kts | 16° |
| 2026-05-08 19:38 | -27.57662 | -50.54082 | 31000 ft | 453 kts | 16° |
| 2026-05-08 19:39 | -27.52081 | -50.50757 | 31000 ft | 453 kts | 16° |
| 2026-05-08 19:39 | -27.46495 | -50.47433 | 31000 ft | 453 kts | 16° |
| 2026-05-08 19:40 | -27.40942 | -50.44134 | 31000 ft | 453 kts | 16° |
| 2026-05-08 19:40 | -27.35362 | -50.40822 | 31000 ft | 453 kts | 16° |
| 2026-05-08 19:41 | -27.30720 | -50.38070 | 31000 ft | 453 kts | 16° |
| 2026-05-08 19:41 | -27.25135 | -50.34762 | 31000 ft | 453 kts | 16° |
| 2026-05-08 19:42 | -27.19552 | -50.31459 | 31000 ft | 453 kts | 16° |
| 2026-05-08 19:42 | -27.13954 | -50.28166 | 31030 ft | 456 kts | 19° |
| 2026-05-08 19:42 | -27.11110 | -50.26483 | 30877 ft | 464 kts | 20° |
| 2026-05-08 19:43 | -27.08288 | -50.24813 | 30644 ft | 462 kts | 20° |
| 2026-05-08 19:43 | -27.05458 | -50.23142 | 30293 ft | 456 kts | 20° |
| 2026-05-08 19:43 | -27.02659 | -50.21490 | 29888 ft | 452 kts | 20° |
| 2026-05-08 19:43 | -26.99881 | -50.19853 | 29467 ft | 449 kts | 20° |
| 2026-05-08 19:44 | -26.97122 | -50.18228 | 29028 ft | 446 kts | 20° |
| 2026-05-08 19:44 | -26.94401 | -50.16627 | 28597 ft | 444 kts | 20° |
| 2026-05-08 19:44 | -26.91676 | -50.15024 | 28158 ft | 441 kts | 20° |
| 2026-05-08 19:44 | -26.88971 | -50.13435 | 27723 ft | 439 kts | 20° |
| 2026-05-08 19:45 | -26.86268 | -50.11847 | 27280 ft | 436 kts | 20° |
| 2026-05-08 19:45 | -26.83584 | -50.10271 | 26845 ft | 434 kts | 21° |
| 2026-05-08 19:45 | -26.80913 | -50.08703 | 26408 ft | 431 kts | 21° |
| 2026-05-08 19:45 | -26.78291 | -50.07165 | 25981 ft | 429 kts | 21° |
| 2026-05-08 19:46 | -26.75653 | -50.05618 | 25548 ft | 427 kts | 21° |
| 2026-05-08 19:46 | -26.73029 | -50.04081 | 25113 ft | 425 kts | 21° |
| 2026-05-08 19:46 | -26.67816 | -50.01029 | 24239 ft | 421 kts | 21° |
| 2026-05-08 19:47 | -26.65224 | -49.99512 | 23808 ft | 419 kts | 21° |
| 2026-05-08 19:47 | -26.62642 | -49.98002 | 23384 ft | 417 kts | 21° |
| 2026-05-08 19:47 | -26.60074 | -49.96492 | 22961 ft | 415 kts | 21° |
| 2026-05-08 19:47 | -26.57519 | -49.94995 | 22544 ft | 414 kts | 21° |
| 2026-05-08 19:48 | -26.54968 | -49.93505 | 22125 ft | 414 kts | 21° |
| 2026-05-08 19:48 | -26.52444 | -49.92034 | 21710 ft | 413 kts | 21° |
| 2026-05-08 19:48 | -26.49887 | -49.90544 | 21289 ft | 412 kts | 21° |
| 2026-05-08 19:48 | -26.47340 | -49.89062 | 20867 ft | 412 kts | 21° |
| 2026-05-08 19:49 | -26.44800 | -49.87584 | 20448 ft | 411 kts | 21° |
| 2026-05-08 19:49 | -26.42296 | -49.86128 | 20030 ft | 411 kts | 21° |
| 2026-05-08 19:49 | -26.39752 | -49.84648 | 19608 ft | 410 kts | 21° |
| 2026-05-08 19:49 | -26.37216 | -49.83175 | 19181 ft | 410 kts | 21° |
| 2026-05-08 19:50 | -26.34707 | -49.81746 | 18762 ft | 408 kts | 19° |
| 2026-05-08 19:50 | -26.32112 | -49.80501 | 18331 ft | 405 kts | 16° |
| 2026-05-08 19:50 | -26.29481 | -49.79400 | 17905 ft | 403 kts | 14° |
| 2026-05-08 19:50 | -26.26832 | -49.78376 | 17472 ft | 402 kts | 13° |
| 2026-05-08 19:51 | -26.24182 | -49.77353 | 17043 ft | 402 kts | 14° |
| 2026-05-08 19:51 | -26.21542 | -49.76314 | 16606 ft | 402 kts | 14° |
| 2026-05-08 19:51 | -26.18912 | -49.75270 | 16204 ft | 401 kts | 14° |
| 2026-05-08 19:51 | -26.16276 | -49.74221 | 15847 ft | 399 kts | 14° |
| 2026-05-08 19:52 | -26.13658 | -49.73180 | 15392 ft | 400 kts | 14° |
| 2026-05-08 19:52 | -26.11067 | -49.72150 | 14952 ft | 401 kts | 14° |
| 2026-05-08 19:52 | -26.08432 | -49.71099 | 14512 ft | 402 kts | 14° |
| 2026-05-08 19:52 | -26.05794 | -49.70049 | 14073 ft | 402 kts | 14° |
| 2026-05-08 19:53 | -26.03155 | -49.69000 | 13626 ft | 403 kts | 14° |
| 2026-05-08 19:53 | -26.00510 | -49.67951 | 13184 ft | 404 kts | 14° |
| 2026-05-08 19:53 | -25.97857 | -49.66898 | 12738 ft | 405 kts | 14° |
| 2026-05-08 19:53 | -25.95197 | -49.65844 | 12294 ft | 406 kts | 14° |
| 2026-05-08 19:54 | -25.92571 | -49.64803 | 11895 ft | 405 kts | 14° |
| 2026-05-08 19:54 | -25.89925 | -49.63754 | 11787 ft | 396 kts | 14° |
| 2026-05-08 19:54 | -25.87380 | -49.62743 | 11860 ft | 384 kts | 14° |
| 2026-05-08 19:54 | -25.84892 | -49.61754 | 11815 ft | 372 kts | 14° |
| 2026-05-08 19:55 | -25.82519 | -49.60814 | 11748 ft | 360 kts | 13° |
| 2026-05-08 19:55 | -25.80197 | -49.59895 | 11685 ft | 348 kts | 13° |
| 2026-05-08 19:55 | -25.77952 | -49.59008 | 11618 ft | 336 kts | 13° |
| 2026-05-08 19:55 | -25.75782 | -49.58151 | 11555 ft | 325 kts | 13° |
| 2026-05-08 19:56 | -25.73684 | -49.57323 | 11461 ft | 314 kts | 13° |
| 2026-05-08 19:56 | -25.71651 | -49.56521 | 11290 ft | 307 kts | 12° |
| 2026-05-08 19:56 | -25.69658 | -49.55735 | 11041 ft | 302 kts | 12° |
| 2026-05-08 19:56 | -25.67714 | -49.54968 | 10756 ft | 298 kts | 12° |
| 2026-05-08 19:57 | -25.65764 | -49.54199 | 10446 ft | 296 kts | 12° |
| 2026-05-08 19:57 | -25.63832 | -49.53438 | 10127 ft | 294 kts | 12° |
| 2026-05-08 19:57 | -25.61913 | -49.52682 | 9812 ft | 292 kts | 13° |
| 2026-05-08 19:57 | -25.60052 | -49.51746 | 9444 ft | 297 kts | 23° |
| 2026-05-08 19:58 | -25.58337 | -49.50453 | 9168 ft | 298 kts | 30° |
| 2026-05-08 19:58 | -25.56792 | -49.49296 | 8007 ft | 294 kts | 33° |
| 2026-05-08 19:58 | -25.55288 | -49.47760 | 7860 ft | 297 kts | 38° |
| 2026-05-08 19:58 | -25.53871 | -49.46103 | 7766 ft | 294 kts | 40° |
| 2026-05-08 19:59 | -25.52479 | -49.44457 | 7642 ft | 292 kts | 39° |
| 2026-05-08 19:59 | -25.51062 | -49.42850 | 7519 ft | 291 kts | 38° |
| 2026-05-08 19:59 | -25.49614 | -49.41273 | 7392 ft | 291 kts | 37° |
| 2026-05-08 19:59 | -25.48166 | -49.39714 | 7269 ft | 291 kts | 37° |
| 2026-05-08 20:00 | -25.46733 | -49.38165 | 7145 ft | 289 kts | 37° |
| 2026-05-08 20:00 | -25.45300 | -49.36616 | 6891 ft | 287 kts | 37° |
| 2026-05-08 20:00 | -25.43907 | -49.35026 | 6547 ft | 290 kts | 44° |
| 2026-05-08 20:00 | -25.42948 | -49.33006 | 6120 ft | 303 kts | 65° |
| 2026-05-08 20:01 | -25.42586 | -49.30718 | 5885 ft | 306 kts | 80° |
| 2026-05-08 20:01 | -25.42745 | -49.28369 | 5539 ft | 311 kts | 100° |
| 2026-05-08 20:01 | -25.43691 | -49.26216 | 5226 ft | 313 kts | 123° |
| 2026-05-08 20:01 | -25.45247 | -49.24561 | 4939 ft | 309 kts | 145° |
| 2026-05-08 20:02 | -25.47114 | -49.23489 | 4836 ft | 298 kts | 153° |
| 2026-05-08 20:02 | -25.48859 | -49.22285 | 4568 ft | 294 kts | 141° |
| 2026-05-08 20:02 | -25.46961 | -49.24073 | 4428 ft | 287 kts | 138° |
| 2026-05-08 20:02 | -25.48408 | -49.22594 | 4089 ft | 278 kts | 134° |
| 2026-05-08 20:03 | -25.49715 | -49.21069 | 3701 ft | 270 kts | 134° |
| 2026-05-08 20:03 | -25.51010 | -49.19631 | 3338 ft | 255 kts | 134° |
| 2026-05-08 20:03 | -25.52214 | -49.18285 | 3036 ft | 236 kts | 134° |
| 2026-05-08 20:03 | -25.52988 | -49.17419 | 3001 ft | 51 kts | 135° |
| 2026-05-08 20:04 | -25.53144 | -49.17307 | 3001 ft | 22 kts | 200° |
| 2026-05-08 20:04 | -25.53266 | -49.17315 | 3001 ft | 22 kts | 139° |
| 2026-05-08 20:04 | -25.53393 | -49.17273 | 3001 ft | 21 kts | 218° |
| 2026-05-08 20:04 | -25.53449 | -49.17332 | 3001 ft | 0 kts | 225° |